createdAt,value
2022-12-11T00:00:37.078Z,77.15
2022-12-11T00:01:36.917Z,79.13
2022-12-11T00:02:37.076Z,78.09
2022-12-11T00:03:36.942Z,77.74
2022-12-11T00:04:37.439Z,75.81
2022-12-11T00:05:37.407Z,76.61
2022-12-11T00:06:37.237Z,80.23
2022-12-11T00:07:36.928Z,79.10
2022-12-11T00:08:37.068Z,80.23
2022-12-11T00:09:36.928Z,78.27
2022-12-11T00:10:37.975Z,77.58
2022-12-11T00:11:37.119Z,78.51
2022-12-11T00:12:36.989Z,78.92
2022-12-11T00:13:36.919Z,78.55
2022-12-11T00:14:37.068Z,78.55
2022-12-11T00:15:36.917Z,79.79
2022-12-11T00:16:36.790Z,79.30
2022-12-11T00:17:36.907Z,80.45
2022-12-11T00:18:36.728Z,79.30
2022-12-11T00:19:36.979Z,80.73
2022-12-11T00:20:36.827Z,79.17
2022-12-11T00:21:37.109Z,79.38
2022-12-11T00:22:36.828Z,79.83
2022-12-11T00:23:36.907Z,80.76
2022-12-11T00:24:36.931Z,80.04
2022-12-11T00:25:36.967Z,80.55
2022-12-11T00:26:36.868Z,80.41
2022-12-11T00:27:36.841Z,80.66
2022-12-11T00:28:36.756Z,80.00
2022-12-11T00:29:36.778Z,79.79
2022-12-11T00:30:36.867Z,81.24
2022-12-11T00:31:36.952Z,81.66
2022-12-11T00:32:37.873Z,79.65
2022-12-11T00:33:36.617Z,79.27
2022-12-11T00:34:36.698Z,78.44
2022-12-11T00:35:36.526Z,78.58
2022-12-11T00:36:36.867Z,78.47
2022-12-11T00:37:36.599Z,79.20
2022-12-11T00:38:36.756Z,77.58
2022-12-11T00:39:36.530Z,78.51
2022-12-11T00:40:36.667Z,78.16
2022-12-11T00:41:36.648Z,79.10
2022-12-11T00:42:36.709Z,78.99
2022-12-11T00:43:36.556Z,78.99
2022-12-11T00:44:36.908Z,79.27
2022-12-11T00:45:36.717Z,77.64
2022-12-11T00:46:36.666Z,78.58
2022-12-11T00:47:36.747Z,78.99
2022-12-11T00:48:36.657Z,78.99
2022-12-11T00:49:36.738Z,78.27
2022-12-11T00:50:36.449Z,78.16
2022-12-11T00:51:36.558Z,78.06
2022-12-11T00:52:36.497Z,76.92
2022-12-11T00:53:36.678Z,78.27
2022-12-11T00:54:36.427Z,78.37
2022-12-11T00:55:36.688Z,79.17
2022-12-11T00:56:36.468Z,76.92
2022-12-11T00:57:36.540Z,78.58
2022-12-11T00:58:36.457Z,77.33
2022-12-11T00:59:36.567Z,78.58
2022-12-11T01:00:36.417Z,77.64
2022-12-11T01:01:36.643Z,77.75
2022-12-11T01:02:36.475Z,77.85
2022-12-11T01:03:36.407Z,77.44
2022-12-11T01:04:36.453Z,79.61
2022-12-11T01:05:36.279Z,78.47
2022-12-11T01:06:36.427Z,77.37
2022-12-11T01:07:36.228Z,78.82
2022-12-11T01:08:38.733Z,79.51
2022-12-11T01:09:36.408Z,79.72
2022-12-11T01:10:36.585Z,78.44
2022-12-11T01:11:36.427Z,77.16
2022-12-11T01:12:36.347Z,77.58
2022-12-11T01:13:36.279Z,79.03
2022-12-11T01:14:36.357Z,75.92
2022-12-11T01:15:41.093Z,75.64
2022-12-11T01:16:36.475Z,76.61
2022-12-11T01:17:36.268Z,76.61
2022-12-11T01:18:36.277Z,77.16
2022-12-11T01:19:36.229Z,79.24
2022-12-11T01:20:36.107Z,77.78
2022-12-11T01:21:36.237Z,77.37
2022-12-11T01:22:36.118Z,78.92
2022-12-11T01:23:36.249Z,77.37
2022-12-11T01:24:36.197Z,77.40
2022-12-11T01:25:36.196Z,77.72
2022-12-11T01:26:36.150Z,77.40
2022-12-11T01:27:36.388Z,78.06
2022-12-11T01:28:36.076Z,79.10
2022-12-11T01:29:36.197Z,79.00
2022-12-11T01:30:36.120Z,79.00
2022-12-11T01:31:36.238Z,80.32
2022-12-11T01:32:36.148Z,77.82
2022-12-11T01:33:36.208Z,77.82
2022-12-11T01:34:36.059Z,79.06
2022-12-11T01:35:35.959Z,78.03
2022-12-11T01:36:36.237Z,77.92
2022-12-11T01:37:35.998Z,77.58
2022-12-11T01:38:36.182Z,77.68
2022-12-11T01:39:35.932Z,76.95
2022-12-11T01:40:36.187Z,77.06
2022-12-11T01:41:35.917Z,76.99
2022-12-11T01:42:36.046Z,77.78
2022-12-11T01:43:36.107Z,76.89
2022-12-11T01:44:36.009Z,77.72
2022-12-11T01:45:36.148Z,78.23
2022-12-11T01:46:36.119Z,78.23
2022-12-11T01:47:36.138Z,79.17
2022-12-11T01:48:41.972Z,77.51
2022-12-11T01:49:35.928Z,79.65
2022-12-11T01:50:36.146Z,77.51
2022-12-11T01:51:35.960Z,78.82
2022-12-11T01:52:35.768Z,77.64
2022-12-11T01:53:35.939Z,76.50
2022-12-11T01:54:35.787Z,76.26
2022-12-11T01:55:35.877Z,76.37
2022-12-11T01:56:35.919Z,74.81
2022-12-11T01:57:36.019Z,75.64
2022-12-11T01:58:35.747Z,75.92
2022-12-11T01:59:35.938Z,75.29
2022-12-11T02:00:35.847Z,74.05
2022-12-11T02:01:35.940Z,74.50
2022-12-11T02:02:35.771Z,74.40
2022-12-11T02:03:35.841Z,75.36
2022-12-11T02:04:35.819Z,77.12
2022-12-11T02:05:35.857Z,76.26
2022-12-11T02:06:35.850Z,74.11
2022-12-11T02:07:35.781Z,74.77
2022-12-11T02:08:35.728Z,74.88
2022-12-11T02:09:35.597Z,75.85
2022-12-11T02:10:35.830Z,77.78
2022-12-11T02:11:35.596Z,75.60
2022-12-11T02:12:35.777Z,75.85
2022-12-11T02:13:35.667Z,77.40
2022-12-11T02:14:35.740Z,78.55
2022-12-11T02:15:35.548Z,76.26
2022-12-11T02:16:35.854Z,76.26
2022-12-11T02:17:35.689Z,75.01
2022-12-11T02:18:36.109Z,75.43
2022-12-11T02:19:35.617Z,75.54
2022-12-11T02:20:35.746Z,75.64
2022-12-11T02:21:35.638Z,75.85
2022-12-11T02:22:35.442Z,75.01
2022-12-11T02:23:35.748Z,75.64
2022-12-11T02:24:35.486Z,76.26
2022-12-11T02:25:35.609Z,75.32
2022-12-11T02:26:35.617Z,76.06
2022-12-11T02:27:35.808Z,75.85
2022-12-11T02:28:35.410Z,76.92
2022-12-11T02:29:35.599Z,76.68
2022-12-11T02:30:35.471Z,76.37
2022-12-11T02:31:35.638Z,77.92
2022-12-11T02:32:35.491Z,77.20
2022-12-11T02:33:35.578Z,76.06
2022-12-11T02:34:35.558Z,76.37
2022-12-11T02:35:35.646Z,77.61
2022-12-11T02:36:35.481Z,76.78
2022-12-11T02:37:35.537Z,77.06
2022-12-11T02:38:35.659Z,75.50
2022-12-11T02:39:35.227Z,75.60
2022-12-11T02:40:35.548Z,75.92
2022-12-11T02:41:35.418Z,75.71
2022-12-11T02:42:35.622Z,76.43
2022-12-11T02:43:35.316Z,76.02
2022-12-11T02:44:35.408Z,76.57
2022-12-11T02:45:35.311Z,77.37
2022-12-11T02:46:35.407Z,77.99
2022-12-11T02:47:35.366Z,77.12
2022-12-11T02:48:35.428Z,77.33
2022-12-11T02:49:35.360Z,76.19
2022-12-11T02:50:35.398Z,76.47
2022-12-11T02:51:35.276Z,74.67
2022-12-11T02:52:35.318Z,74.40
2022-12-11T02:53:35.388Z,74.29
2022-12-11T02:54:35.367Z,75.33
2022-12-11T02:55:35.356Z,74.36
2022-12-11T02:56:35.328Z,72.32
2022-12-11T02:57:35.419Z,74.15
2022-12-11T02:58:35.338Z,73.84
2022-12-11T02:59:35.247Z,73.25
2022-12-11T03:00:35.157Z,73.67
2022-12-11T03:01:35.474Z,74.15
2022-12-11T03:02:35.334Z,72.05
2022-12-11T03:03:35.396Z,72.88
2022-12-11T03:04:35.117Z,72.39
2022-12-11T03:05:35.217Z,73.32
2022-12-11T03:06:35.237Z,73.98
2022-12-11T03:07:35.207Z,74.43
2022-12-11T03:08:35.197Z,75.98
2022-12-11T03:09:35.086Z,75.26
2022-12-11T03:10:35.146Z,74.95
2022-12-11T03:11:35.078Z,75.57
2022-12-11T03:12:35.168Z,75.60
2022-12-11T03:13:34.984Z,76.12
2022-12-11T03:14:35.268Z,75.85
2022-12-11T03:15:34.966Z,73.98
2022-12-11T03:16:35.339Z,74.57
2022-12-11T03:17:35.008Z,74.15
2022-12-11T03:18:35.128Z,74.46
2022-12-11T03:19:34.959Z,74.08
2022-12-11T03:20:35.226Z,74.26
2022-12-11T03:21:34.918Z,74.05
2022-12-11T03:22:35.280Z,73.01
2022-12-11T03:23:35.049Z,73.53
2022-12-11T03:24:35.028Z,73.53
2022-12-11T03:25:35.007Z,73.67
2022-12-11T03:26:34.826Z,75.12
2022-12-11T03:27:34.969Z,75.36
2022-12-11T03:28:34.887Z,74.32
2022-12-11T03:29:34.178Z,75.26
2022-12-11T03:30:35.066Z,75.50
2022-12-11T03:31:35.028Z,75.02
2022-12-11T03:32:34.809Z,76.12
2022-12-11T03:33:35.096Z,73.63
2022-12-11T03:34:34.907Z,72.49
2022-12-11T03:35:34.879Z,72.08
2022-12-11T03:36:34.776Z,72.80
2022-12-11T03:37:34.866Z,72.91
2022-12-11T03:38:34.888Z,72.70
2022-12-11T03:39:34.858Z,72.53
2022-12-11T03:40:34.988Z,72.74
2022-12-11T03:41:34.598Z,72.74
2022-12-11T03:42:34.880Z,72.42
2022-12-11T03:43:34.757Z,72.94
2022-12-11T03:44:34.796Z,73.05
2022-12-11T03:45:34.786Z,72.01
2022-12-11T03:46:35.023Z,71.80
2022-12-11T03:47:34.738Z,73.28
2022-12-11T03:48:34.734Z,73.70
2022-12-11T03:49:34.678Z,75.26
2022-12-11T03:50:34.776Z,74.84
2022-12-11T03:51:34.729Z,72.70
2022-12-11T03:52:34.750Z,72.91
2022-12-11T03:53:34.648Z,73.01
2022-12-11T03:54:34.818Z,72.49
2022-12-11T03:55:34.657Z,71.94
2022-12-11T03:56:34.767Z,72.18
2022-12-11T03:57:34.859Z,70.87
2022-12-11T03:58:34.507Z,73.49
2022-12-11T03:59:34.757Z,73.46
2022-12-11T04:00:34.715Z,74.29
2022-12-11T04:01:34.716Z,72.77
2022-12-11T04:02:34.559Z,73.18
2022-12-11T04:03:34.688Z,74.84
2022-12-11T04:04:34.652Z,74.84
2022-12-11T04:05:34.666Z,75.15
2022-12-11T04:06:34.601Z,74.57
2022-12-11T04:07:34.597Z,76.54
2022-12-11T04:08:34.559Z,74.63
2022-12-11T04:09:34.609Z,74.84
2022-12-11T04:10:34.627Z,74.91
2022-12-11T04:11:34.701Z,74.60
2022-12-11T04:12:34.616Z,73.57
2022-12-11T04:13:34.346Z,73.11
2022-12-11T04:14:34.528Z,72.28
2022-12-11T04:15:34.444Z,72.18
2022-12-11T04:16:34.459Z,73.53
2022-12-11T04:17:34.347Z,74.98
2022-12-11T04:18:34.619Z,75.36
2022-12-11T04:19:34.456Z,75.15
2022-12-11T04:20:34.567Z,76.19
2022-12-11T04:21:39.294Z,76.43
2022-12-11T04:22:34.637Z,76.29
2022-12-11T04:23:34.327Z,76.61
2022-12-11T04:24:34.447Z,76.29
2022-12-11T04:25:34.279Z,77.02
2022-12-11T04:26:34.465Z,77.85
2022-12-11T04:27:34.990Z,76.92
2022-12-11T04:28:34.307Z,76.81
2022-12-11T04:29:34.449Z,77.89
2022-12-11T04:30:34.658Z,77.99
2022-12-11T04:31:34.349Z,77.85
2022-12-11T04:32:34.356Z,76.92
2022-12-11T04:33:34.452Z,78.16
2022-12-11T04:34:34.189Z,77.09
2022-12-11T04:35:34.319Z,76.16
2022-12-11T04:36:34.248Z,76.40
2022-12-11T04:37:34.429Z,77.26
2022-12-11T04:38:34.277Z,78.72
2022-12-11T04:39:34.276Z,78.16
2022-12-11T04:40:34.277Z,76.78
2022-12-11T04:41:34.388Z,76.06
2022-12-11T04:42:34.157Z,76.26
2022-12-11T04:43:34.228Z,76.81
2022-12-11T04:44:34.186Z,77.64
2022-12-11T04:45:34.118Z,78.06
2022-12-11T04:46:34.399Z,76.92
2022-12-11T04:47:34.169Z,77.16
2022-12-11T04:48:34.337Z,78.20
2022-12-11T04:49:34.018Z,78.34
2022-12-11T04:50:34.308Z,78.75
2022-12-11T04:51:34.066Z,78.79
2022-12-11T04:52:34.318Z,80.35
2022-12-11T04:53:34.107Z,79.41
2022-12-11T04:54:34.157Z,79.52
2022-12-11T04:55:33.978Z,80.42
2022-12-11T04:56:34.188Z,79.38
2022-12-11T04:57:33.987Z,79.17
2022-12-11T04:58:34.227Z,80.00
2022-12-11T04:59:34.038Z,80.11
2022-12-11T05:00:33.829Z,80.11
2022-12-11T05:01:34.069Z,78.44
2022-12-11T05:02:33.945Z,79.38
2022-12-11T05:03:34.048Z,79.06
2022-12-11T05:04:33.978Z,78.89
2022-12-11T05:05:34.138Z,79.66
2022-12-11T05:06:33.917Z,81.39
2022-12-11T05:07:33.997Z,80.73
2022-12-11T05:08:33.858Z,81.15
2022-12-11T05:09:33.989Z,78.82
2022-12-11T05:10:33.869Z,78.75
2022-12-11T05:11:33.938Z,78.51
2022-12-11T05:12:33.892Z,78.34
2022-12-11T05:13:33.968Z,78.13
2022-12-11T05:14:34.066Z,76.99
2022-12-11T05:15:33.987Z,77.55
2022-12-11T05:16:33.866Z,78.89
2022-12-11T05:17:33.910Z,78.86
2022-12-11T05:18:33.957Z,78.86
2022-12-11T05:19:33.716Z,77.26
2022-12-11T05:20:33.997Z,76.16
2022-12-11T05:21:35.279Z,77.40
2022-12-11T05:22:33.877Z,77.40
2022-12-11T05:23:34.227Z,76.23
2022-12-11T05:24:33.900Z,76.50
2022-12-11T05:25:33.668Z,76.61
2022-12-11T05:26:33.870Z,75.15
2022-12-11T05:27:33.717Z,75.15
2022-12-11T05:28:33.835Z,74.43
2022-12-11T05:29:33.799Z,75.09
2022-12-11T05:30:33.837Z,74.88
2022-12-11T05:31:33.743Z,75.32
2022-12-11T05:32:33.528Z,76.64
2022-12-11T05:33:33.687Z,75.71
2022-12-11T05:34:33.690Z,75.67
2022-12-11T05:35:33.707Z,74.77
2022-12-11T05:36:33.716Z,74.26
2022-12-11T05:37:33.661Z,75.09
2022-12-11T05:38:33.539Z,75.01
2022-12-11T05:39:33.647Z,75.54
2022-12-11T05:40:33.526Z,75.22
2022-12-11T05:41:33.626Z,75.85
2022-12-11T05:42:33.607Z,75.85
2022-12-11T05:43:33.647Z,73.74
2022-12-11T05:44:33.526Z,73.43
2022-12-11T05:45:33.737Z,74.08
2022-12-11T05:46:33.564Z,74.70
2022-12-11T05:47:33.727Z,75.46
2022-12-11T05:48:33.598Z,77.34
2022-12-11T05:49:33.437Z,75.74
2022-12-11T05:50:33.637Z,74.98
2022-12-11T05:51:33.617Z,74.39
2022-12-11T05:52:33.647Z,75.29
2022-12-11T05:53:33.449Z,73.97
2022-12-11T05:54:34.098Z,74.91
2022-12-11T05:55:33.467Z,75.05
2022-12-11T05:56:33.517Z,77.27
2022-12-11T05:57:33.347Z,76.33
2022-12-11T05:58:33.678Z,76.75
2022-12-11T05:59:33.456Z,76.54
2022-12-11T06:00:36.196Z,75.60
2022-12-11T06:01:33.604Z,76.02
2022-12-11T06:02:33.544Z,75.92
2022-12-11T06:03:33.468Z,75.50
2022-12-11T06:04:33.277Z,76.09
2022-12-11T06:05:33.407Z,75.01
2022-12-11T06:06:33.227Z,74.91
2022-12-11T06:07:33.468Z,74.18
2022-12-11T06:08:33.379Z,74.43
2022-12-11T06:09:33.379Z,73.56
2022-12-11T06:10:33.325Z,73.60
2022-12-11T06:11:33.369Z,74.08
2022-12-11T06:12:33.308Z,73.56
2022-12-11T06:13:33.357Z,74.32
2022-12-11T06:14:33.197Z,74.88
2022-12-11T06:15:33.879Z,75.43
2022-12-11T06:16:33.257Z,75.54
2022-12-11T06:17:33.289Z,76.06
2022-12-11T06:18:33.308Z,75.43
2022-12-11T06:19:36.715Z,75.54
2022-12-11T06:20:33.207Z,75.01
2022-12-11T06:21:33.257Z,75.95
2022-12-11T06:22:33.196Z,76.64
2022-12-11T06:23:33.007Z,75.29
2022-12-11T06:24:33.216Z,74.46
2022-12-11T06:25:33.117Z,75.01
2022-12-11T06:26:34.049Z,75.85
2022-12-11T06:27:33.218Z,76.78
2022-12-11T06:28:33.158Z,75.85
2022-12-11T06:29:33.196Z,77.51
2022-12-11T06:30:38.588Z,76.06
2022-12-11T06:31:33.078Z,75.54
2022-12-11T06:32:33.257Z,75.64
2022-12-11T06:33:33.248Z,75.46
2022-12-11T06:34:33.227Z,74.84
2022-12-11T06:35:37.358Z,75.57
2022-12-11T06:36:32.968Z,75.05
2022-12-11T06:37:33.078Z,76.30
2022-12-11T06:38:32.887Z,74.43
2022-12-11T06:39:33.137Z,75.95
2022-12-11T06:40:32.838Z,74.18
2022-12-11T06:41:32.988Z,74.32
2022-12-11T06:42:32.918Z,75.57
2022-12-11T06:43:33.099Z,74.95
2022-12-11T06:44:33.017Z,74.74
2022-12-11T06:45:33.143Z,74.66
2022-12-11T06:46:32.957Z,74.98
2022-12-11T06:47:32.956Z,75.36
2022-12-11T06:48:33.016Z,77.61
2022-12-11T06:49:33.068Z,76.26
2022-12-11T06:50:33.008Z,75.50
2022-12-11T06:51:32.946Z,74.63
2022-12-11T06:52:32.190Z,75.78
2022-12-11T06:53:32.834Z,75.43
2022-12-11T06:54:33.236Z,74.18
2022-12-11T06:55:32.889Z,72.86
2022-12-11T06:56:33.537Z,74.01
2022-12-11T06:57:32.938Z,73.87
2022-12-11T06:58:32.856Z,73.66
2022-12-11T06:59:32.718Z,72.73
2022-12-11T07:00:32.817Z,73.25
2022-12-11T07:01:32.758Z,73.70
2022-12-11T07:02:32.988Z,72.45
2022-12-11T07:03:32.798Z,73.21
2022-12-11T07:04:32.816Z,73.83
2022-12-11T07:05:32.706Z,75.40
2022-12-11T07:06:32.857Z,76.02
2022-12-11T07:07:32.688Z,74.67
2022-12-11T07:08:32.767Z,74.77
2022-12-11T07:09:32.837Z,74.29
2022-12-11T07:10:31.986Z,75.43
2022-12-11T07:11:32.788Z,75.43
2022-12-11T07:12:32.578Z,75.92
2022-12-11T07:13:32.827Z,74.46
2022-12-11T07:14:32.705Z,75.36
2022-12-11T07:15:34.406Z,75.54
2022-12-11T07:16:32.594Z,73.04
2022-12-11T07:17:32.727Z,73.14
2022-12-11T07:18:32.668Z,72.63
2022-12-11T07:19:32.837Z,73.77
2022-12-11T07:20:32.627Z,72.34
2022-12-11T07:21:32.840Z,72.28
2022-12-11T07:22:32.617Z,73.32
2022-12-11T07:23:32.506Z,72.90
2022-12-11T07:24:32.567Z,73.87
2022-12-11T07:25:32.427Z,73.97
2022-12-11T07:26:32.647Z,74.70
2022-12-11T07:27:32.477Z,76.26
2022-12-11T07:28:32.727Z,75.40
2022-12-11T07:29:32.467Z,73.52
2022-12-11T07:30:32.577Z,73.77
2022-12-11T07:31:32.631Z,74.08
2022-12-11T07:32:32.831Z,75.92
2022-12-11T07:33:32.466Z,74.35
2022-12-11T07:34:32.570Z,76.29
2022-12-11T07:35:32.498Z,72.76
2022-12-11T07:36:32.477Z,71.93
2022-12-11T07:37:32.437Z,74.53
2022-12-11T07:38:32.499Z,73.39
2022-12-11T07:39:32.376Z,73.11
2022-12-11T07:40:31.667Z,75.36
2022-12-11T07:41:32.357Z,74.29
2022-12-11T07:42:32.336Z,72.52
2022-12-11T07:43:32.455Z,72.28
2022-12-11T07:44:32.387Z,73.39
2022-12-11T07:45:32.465Z,72.14
2022-12-11T07:46:32.267Z,71.11
2022-12-11T07:47:32.348Z,71.70
2022-12-11T07:48:32.358Z,70.10
2022-12-11T07:49:32.357Z,69.48
2022-12-11T07:50:36.591Z,68.24
2022-12-11T07:51:32.309Z,67.65
2022-12-11T07:52:32.226Z,68.27
2022-12-11T07:53:32.325Z,68.72
2022-12-11T07:54:32.277Z,68.41
2022-12-11T07:55:32.076Z,67.30
2022-12-11T07:56:32.207Z,70.28
2022-12-11T07:57:32.167Z,68.93
2022-12-11T07:58:32.327Z,68.30
2022-12-11T07:59:32.107Z,66.96
2022-12-11T08:00:32.317Z,67.50
2022-12-11T08:01:32.087Z,67.50
2022-12-11T08:02:37.033Z,67.68
2022-12-11T08:03:32.066Z,67.58
2022-12-11T08:04:32.206Z,67.89
2022-12-11T08:05:32.247Z,66.85
2022-12-11T08:06:32.247Z,67.16
2022-12-11T08:07:32.087Z,66.33
2022-12-11T08:08:32.187Z,67.27
2022-12-11T08:09:32.077Z,67.24
2022-12-11T08:10:32.189Z,65.37
2022-12-11T08:11:32.128Z,66.09
2022-12-11T08:12:31.956Z,65.19
2022-12-11T08:13:32.177Z,66.64
2022-12-11T08:14:31.967Z,66.09
2022-12-11T08:15:32.296Z,66.25
2022-12-11T08:16:31.992Z,67.82
2022-12-11T08:17:38.255Z,66.78
2022-12-11T08:18:31.989Z,66.50
2022-12-11T08:19:32.068Z,67.85
2022-12-11T08:20:31.988Z,68.50
2022-12-11T08:21:32.037Z,68.81
2022-12-11T08:22:32.156Z,68.29
2022-12-11T08:23:32.077Z,70.03
2022-12-11T08:24:32.006Z,68.23
2022-12-11T08:25:31.996Z,68.23
2022-12-11T08:26:32.000Z,67.37
2022-12-11T08:27:31.887Z,66.51
2022-12-11T08:28:32.007Z,66.54
2022-12-11T08:29:31.768Z,67.68
2022-12-11T08:30:32.037Z,66.85
2022-12-11T08:31:31.776Z,67.50
2022-12-11T08:32:31.998Z,68.02
2022-12-11T08:33:31.847Z,67.61
2022-12-11T08:34:31.898Z,67.37
2022-12-11T08:35:31.989Z,66.22
2022-12-11T08:36:32.007Z,67.99
2022-12-11T08:37:31.778Z,67.03
2022-12-11T08:38:31.998Z,65.80
2022-12-11T08:39:31.928Z,63.84
2022-12-11T08:40:32.207Z,61.99
2022-12-11T08:41:31.846Z,59.64
2022-12-11T08:42:31.806Z,58.69
2022-12-11T08:43:31.737Z,56.03
2022-12-11T08:44:32.689Z,55.54
2022-12-11T08:45:32.348Z,51.97
2022-12-11T08:46:31.781Z,51.10
2022-12-11T08:47:31.799Z,49.41
2022-12-11T08:48:32.346Z,47.96
2022-12-11T08:49:34.544Z,48.36
2022-12-11T08:50:31.628Z,47.13
2022-12-11T08:51:31.786Z,48.26
2022-12-11T08:52:31.656Z,46.30
2022-12-11T08:53:31.766Z,47.19
2022-12-11T08:54:31.566Z,46.12
2022-12-11T08:55:31.737Z,45.59
2022-12-11T08:56:31.607Z,44.78
2022-12-11T08:57:31.727Z,44.96
2022-12-11T08:58:31.665Z,44.14
2022-12-11T08:59:31.466Z,44.14
2022-12-11T09:00:31.687Z,45.55
2022-12-11T09:01:31.556Z,42.32
2022-12-11T09:02:31.788Z,42.96
2022-12-11T09:03:31.537Z,43.40
2022-12-11T09:04:31.626Z,43.90
2022-12-11T09:05:31.478Z,45.08
2022-12-11T09:06:31.547Z,45.47
2022-12-11T09:07:31.557Z,43.59
2022-12-11T09:08:30.796Z,43.06
2022-12-11T09:09:31.388Z,41.56
2022-12-11T09:10:31.497Z,43.04
2022-12-11T09:11:31.438Z,44.06
2022-12-11T09:12:31.556Z,42.81
2022-12-11T09:13:31.569Z,42.61
2022-12-11T09:14:30.707Z,44.61
2022-12-11T09:15:31.495Z,42.12
2022-12-11T09:16:30.707Z,41.06
2022-12-11T09:17:31.548Z,41.05
2022-12-11T09:18:30.740Z,40.72
2022-12-11T09:19:32.756Z,39.06
2022-12-11T09:20:31.506Z,39.17
2022-12-11T09:21:31.410Z,39.48
2022-12-11T09:22:30.657Z,39.48
2022-12-11T09:23:31.447Z,38.87
2022-12-11T09:24:32.092Z,38.58
2022-12-11T09:25:31.437Z,38.36
2022-12-11T09:26:31.289Z,38.04
2022-12-11T09:27:31.412Z,37.23
2022-12-11T09:28:31.328Z,39.58
2022-12-11T09:29:31.457Z,39.24
2022-12-11T09:30:31.509Z,38.12
2022-12-11T09:31:31.148Z,37.12
2022-12-11T09:32:31.357Z,37.84
2022-12-11T09:33:31.148Z,39.15
2022-12-11T09:34:31.357Z,37.45
2022-12-11T09:35:32.358Z,38.38
2022-12-11T09:36:31.316Z,37.26
2022-12-11T09:37:31.127Z,39.51
2022-12-11T09:38:31.427Z,37.99
2022-12-11T09:39:31.186Z,37.68
2022-12-11T09:40:31.266Z,37.99
2022-12-11T09:41:31.148Z,38.01
2022-12-11T09:42:31.276Z,38.76
2022-12-11T09:43:31.137Z,39.78
2022-12-11T09:44:31.367Z,38.94
2022-12-11T09:45:31.286Z,39.47
2022-12-11T09:46:34.208Z,39.90
2022-12-11T09:47:31.136Z,40.61
2022-12-11T09:48:31.007Z,40.19
2022-12-11T09:49:31.158Z,39.33
2022-12-11T09:50:31.006Z,38.74
2022-12-11T09:51:31.098Z,39.13
2022-12-11T09:52:31.048Z,38.60
2022-12-11T09:53:34.269Z,37.88
2022-12-11T09:54:30.959Z,38.01
2022-12-11T09:55:31.138Z,37.82
2022-12-11T09:56:31.059Z,38.87
2022-12-11T09:57:31.147Z,40.85
2022-12-11T09:58:31.007Z,39.71
2022-12-11T09:59:30.250Z,40.80
2022-12-11T10:00:31.047Z,39.96
2022-12-11T10:01:31.075Z,37.68
2022-12-11T10:02:31.036Z,39.92
2022-12-11T10:03:30.818Z,37.49
2022-12-11T10:04:30.938Z,39.57
2022-12-11T10:05:30.807Z,38.64
2022-12-11T10:06:31.078Z,40.71
2022-12-11T10:07:30.818Z,41.63
2022-12-11T10:08:31.105Z,42.41
2022-12-11T10:09:30.958Z,42.71
2022-12-11T10:10:38.901Z,41.41
2022-12-11T10:11:30.962Z,40.83
2022-12-11T10:12:31.077Z,41.65
2022-12-11T10:13:30.207Z,41.73
2022-12-11T10:14:31.685Z,43.43
2022-12-11T10:15:30.548Z,46.77
2022-12-11T10:16:30.917Z,46.83
2022-12-11T10:17:30.807Z,47.97
2022-12-11T10:18:30.067Z,45.66
2022-12-11T10:19:32.021Z,47.27
2022-12-11T10:20:30.970Z,49.78
2022-12-11T10:21:30.007Z,49.37
2022-12-11T10:22:30.758Z,50.26
2022-12-11T10:23:30.792Z,51.83
2022-12-11T10:25:07.455Z,52.91
2022-12-11T10:25:31.957Z,54.19
2022-12-11T10:26:30.618Z,54.86
2022-12-11T10:27:29.967Z,55.59
2022-12-11T10:28:30.758Z,56.41
2022-12-11T10:29:30.727Z,54.50
2022-12-11T10:30:34.306Z,53.29
2022-12-11T10:31:30.833Z,54.53
2022-12-11T10:32:30.697Z,55.59
2022-12-11T10:33:30.537Z,55.72
2022-12-11T10:34:30.637Z,56.00
2022-12-11T10:35:30.468Z,55.10
2022-12-11T10:36:30.827Z,56.68
2022-12-11T10:37:30.516Z,57.56
2022-12-11T10:38:30.637Z,58.20
2022-12-11T10:39:30.529Z,58.64
2022-12-11T10:40:30.637Z,59.30
2022-12-11T10:41:30.517Z,60.22
2022-12-11T10:42:30.667Z,61.05
2022-12-11T10:43:30.547Z,60.10
2022-12-11T10:44:30.608Z,59.99
2022-12-11T10:45:30.486Z,60.27
2022-12-11T10:46:30.711Z,59.34
2022-12-11T10:47:30.528Z,58.93
2022-12-11T10:48:30.726Z,59.75
2022-12-11T10:49:30.588Z,58.31
2022-12-11T10:50:30.297Z,58.00
2022-12-11T10:51:30.900Z,58.02
2022-12-11T10:52:30.319Z,59.16
2022-12-11T10:53:30.576Z,58.85
2022-12-11T10:54:30.397Z,58.02
2022-12-11T10:55:30.577Z,58.15
2022-12-11T10:56:30.437Z,58.67
2022-12-11T10:57:30.506Z,60.43
2022-12-11T10:58:31.348Z,59.78
2022-12-11T10:59:30.417Z,59.19
2022-12-11T11:00:30.437Z,58.98
2022-12-11T11:01:30.429Z,60.02
2022-12-11T11:02:29.641Z,59.40
2022-12-11T11:03:30.919Z,60.02
2022-12-11T11:04:31.497Z,59.91
2022-12-11T11:05:30.157Z,59.61
2022-12-11T11:06:30.827Z,59.50
2022-12-11T11:07:30.167Z,59.81
2022-12-11T11:08:29.553Z,59.61
2022-12-11T11:09:30.460Z,60.93
2022-12-11T11:10:29.499Z,58.85
2022-12-11T11:11:30.240Z,59.19
2022-12-11T11:12:29.487Z,60.51
2022-12-11T11:13:30.188Z,59.47
2022-12-11T11:14:30.450Z,58.98
2022-12-11T11:15:30.167Z,59.89
2022-12-11T11:16:30.450Z,59.47
2022-12-11T11:17:34.895Z,59.68
2022-12-11T11:18:30.266Z,59.68
2022-12-11T11:19:30.307Z,61.34
2022-12-11T11:20:30.187Z,59.89
2022-12-11T11:21:30.564Z,59.37
2022-12-11T11:22:30.107Z,59.06
2022-12-11T11:23:30.340Z,58.98
2022-12-11T11:24:30.000Z,58.57
2022-12-11T11:25:30.166Z,60.43
2022-12-11T11:26:43.872Z,60.72
2022-12-11T11:27:30.388Z,58.85
2022-12-11T11:28:30.667Z,60.10
2022-12-11T11:29:30.190Z,58.41
2022-12-11T11:30:30.116Z,60.04
2022-12-11T11:31:30.256Z,58.25
2022-12-11T11:32:30.077Z,58.15
2022-12-11T11:33:30.143Z,57.60
2022-12-11T11:34:30.026Z,55.85
2022-12-11T11:35:30.088Z,55.95
2022-12-11T11:36:30.116Z,56.39
2022-12-11T11:37:29.908Z,57.84
2022-12-11T11:40:27.962Z,56.73
2022-12-11T11:40:33.062Z,57.14
2022-12-11T11:41:33.709Z,56.83
2022-12-11T11:42:33.869Z,58.20
2022-12-11T11:43:33.809Z,59.14
2022-12-11T11:44:33.748Z,58.31
2022-12-11T11:45:34.210Z,59.55
2022-12-11T11:46:32.947Z,58.83
2022-12-11T11:47:33.798Z,59.14
2022-12-11T11:48:34.419Z,57.89
2022-12-11T11:49:34.438Z,57.81
2022-12-11T11:50:33.539Z,59.06
2022-12-11T11:51:33.819Z,57.09
2022-12-11T11:52:33.508Z,59.03
2022-12-11T11:53:33.930Z,57.37
2022-12-11T11:54:33.587Z,57.79
2022-12-11T11:55:34.270Z,58.20
2022-12-11T11:56:34.202Z,59.24
2022-12-11T11:57:33.779Z,56.26
2022-12-11T11:58:33.550Z,57.64
2022-12-11T11:59:33.638Z,57.56
2022-12-11T12:00:34.078Z,57.04
2022-12-11T12:01:32.800Z,59.61
2022-12-11T12:02:33.593Z,58.36
2022-12-11T12:03:33.388Z,57.64
2022-12-11T12:04:33.988Z,59.40
2022-12-11T12:05:33.430Z,58.57
2022-12-11T12:06:33.549Z,57.76
2022-12-11T12:07:33.879Z,57.76
2022-12-11T12:08:33.492Z,58.00
2022-12-11T12:09:32.766Z,59.17
2022-12-11T12:10:33.880Z,58.94
2022-12-11T12:11:33.558Z,59.04
2022-12-11T12:12:34.548Z,59.87
2022-12-11T12:13:50.318Z,59.97
2022-12-11T12:15:33.569Z,59.97
2022-12-11T12:17:34.245Z,59.97
2022-12-11T12:18:33.463Z,59.94
2022-12-11T12:19:33.359Z,59.42
2022-12-11T12:20:33.199Z,60.15
2022-12-11T12:21:33.578Z,59.63
2022-12-11T12:22:33.791Z,60.57
2022-12-11T12:23:36.924Z,59.84
2022-12-11T12:24:33.599Z,59.61
2022-12-11T12:25:32.700Z,59.30
2022-12-11T12:26:34.278Z,59.61
2022-12-11T12:28:32.518Z,59.81
2022-12-11T12:29:32.489Z,58.78
2022-12-11T12:30:33.251Z,59.99
2022-12-11T12:31:33.499Z,60.20
2022-12-11T12:32:33.300Z,60.10
2022-12-11T12:33:33.108Z,58.31
2022-12-11T12:34:33.379Z,58.20
2022-12-11T12:35:33.368Z,58.69
2022-12-11T12:36:33.219Z,59.31
2022-12-11T12:37:33.239Z,60.04
2022-12-11T12:38:33.229Z,58.56
2022-12-11T12:39:32.450Z,57.01
2022-12-11T12:40:33.178Z,57.32
2022-12-11T12:41:33.069Z,57.09
2022-12-11T12:42:33.149Z,57.32
2022-12-11T12:43:33.130Z,57.22
2022-12-11T12:44:33.130Z,56.39
2022-12-11T12:45:33.668Z,57.14
2022-12-11T12:46:33.190Z,59.63
2022-12-11T12:47:33.369Z,59.11
2022-12-11T12:48:33.648Z,58.90
2022-12-11T12:49:33.929Z,58.48
2022-12-11T12:50:33.378Z,58.38
2022-12-11T12:51:33.259Z,58.07
2022-12-11T12:52:33.409Z,58.69
2022-12-11T12:53:32.248Z,60.66
2022-12-11T12:54:33.360Z,61.25
2022-12-11T12:55:33.762Z,61.36
2022-12-11T12:56:33.299Z,59.39